sensor_id;sensor_type;location;lat;lon;timestamp;pressure;altitude;pressure_sealevel;temperature;humidity
46015;BME280;36844;51.898;-0.874;2022-08-03T00:00:40;100197.91;;;23.63;
46015;BME280;36844;51.898;-0.874;2022-08-03T00:03:26;100197.63;;;23.61;
46015;BME280;36844;51.898;-0.874;2022-08-03T00:06:11;100203.34;;;23.63;
46015;BME280;36844;51.898;-0.874;2022-08-03T00:08:57;100201.09;;;23.61;
46015;BME280;36844;51.898;-0.874;2022-08-03T00:11:42;100205.00;;;23.60;
46015;BME280;36844;51.898;-0.874;2022-08-03T00:14:28;100200.00;;;23.59;
46015;BME280;36844;51.898;-0.874;2022-08-03T00:17:14;100200.78;;;23.59;
46015;BME280;36844;51.898;-0.874;2022-08-03T00:19:59;100189.59;;;23.57;
46015;BME280;36844;51.898;-0.874;2022-08-03T00:22:45;100178.09;;;23.53;
46015;BME280;36844;51.898;-0.874;2022-08-03T00:25:31;100179.91;;;23.56;
46015;BME280;36844;51.898;-0.874;2022-08-03T00:28:16;100177.97;;;23.57;
46015;BME280;36844;51.898;-0.874;2022-08-03T00:31:02;100177.63;;;23.55;
46015;BME280;36844;51.898;-0.874;2022-08-03T00:33:48;100176.84;;;23.54;
46015;BME280;36844;51.898;-0.874;2022-08-03T00:36:33;100176.84;;;23.54;
46015;BME280;36844;51.898;-0.874;2022-08-03T00:39:19;100178.09;;;23.53;
46015;BME280;36844;51.898;-0.874;2022-08-03T00:42:04;100180.81;;;23.53;
46015;BME280;36844;51.898;-0.874;2022-08-03T00:44:50;100180.81;;;23.53;
46015;BME280;36844;51.898;-0.874;2022-08-03T00:47:35;100172.31;;;23.51;
46015;BME280;36844;51.898;-0.874;2022-08-03T00:50:21;100170.06;;;23.50;
46015;BME280;36844;51.898;-0.874;2022-08-03T00:53:08;100170.78;;;23.50;
46015;BME280;36844;51.898;-0.874;2022-08-03T00:55:54;100178.22;;;23.50;
46015;BME280;36844;51.898;-0.874;2022-08-03T00:58:40;100169.28;;;23.49;
46015;BME280;36844;51.898;-0.874;2022-08-03T01:01:25;100174.72;;;23.49;
46015;BME280;36844;51.898;-0.874;2022-08-03T01:04:11;100168.53;;;23.49;
46015;BME280;36844;51.898;-0.874;2022-08-03T01:06:59;100170.47;;;23.48;
46015;BME280;36844;51.898;-0.874;2022-08-03T01:18:17;100155.81;;;23.46;
46015;BME280;36844;51.898;-0.874;2022-08-03T01:21:08;100164.41;;;23.44;
46015;BME280;36844;51.898;-0.874;2022-08-03T01:24:05;100164.41;;;23.44;
46015;BME280;36844;51.898;-0.874;2022-08-03T01:27:02;100157.44;;;23.43;
46015;BME280;36844;51.898;-0.874;2022-08-03T01:29:56;100155.22;;;23.42;
46015;BME280;36844;51.898;-0.874;2022-08-03T01:38:22;100148.22;;;23.41;
46015;BME280;36844;51.898;-0.874;2022-08-03T01:41:12;100150.19;;;23.40;
46015;BME280;36844;51.898;-0.874;2022-08-03T01:44:00;100150.19;;;23.40;
46015;BME280;36844;51.898;-0.874;2022-08-03T01:46:46;100150.19;;;23.40;
46015;BME280;36844;51.898;-0.874;2022-08-03T01:49:35;100140.53;;;23.39;
46015;BME280;36844;51.898;-0.874;2022-08-03T01:52:21;100148.69;;;23.39;
46015;BME280;36844;51.898;-0.874;2022-08-03T01:55:08;100143.25;;;23.39;
46015;BME280;36844;51.898;-0.874;2022-08-03T01:57:54;100139.00;;;23.38;
46015;BME280;36844;51.898;-0.874;2022-08-03T02:00:41;100139.00;;;23.38;
46015;BME280;36844;51.898;-0.874;2022-08-03T02:03:28;100143.69;;;23.38;
46015;BME280;36844;51.898;-0.874;2022-08-03T02:06:14;100142.16;;;23.37;
46015;BME280;36844;51.898;-0.874;2022-08-03T02:09:00;100142.16;;;23.37;
46015;BME280;36844;51.898;-0.874;2022-08-03T02:11:46;100143.38;;;23.36;
46015;BME280;36844;51.898;-0.874;2022-08-03T02:14:32;100140.66;;;23.36;
46015;BME280;36844;51.898;-0.874;2022-08-03T02:17:18;100140.66;;;23.36;
46015;BME280;36844;51.898;-0.874;2022-08-03T02:20:04;100133.69;;;23.35;
46015;BME280;36844;51.898;-0.874;2022-08-03T02:22:50;100139.13;;;23.35;
46015;BME280;36844;51.898;-0.874;2022-08-03T02:25:46;100143.81;;;23.34;
46015;BME280;36844;51.898;-0.874;2022-08-03T02:28:36;100136.88;;;23.33;
46015;BME280;36844;51.898;-0.874;2022-08-03T02:31:26;100138.03;;;23.32;
46015;BME280;36844;51.898;-0.874;2022-08-03T02:34:13;100140.78;;;23.32;
46015;BME280;36844;51.898;-0.874;2022-08-03T02:36:59;100134.56;;;23.31;
46015;BME280;36844;51.898;-0.874;2022-08-03T02:39:47;100135.34;;;23.32;
46015;BME280;36844;51.898;-0.874;2022-08-03T02:42:33;100133.78;;;23.31;
46015;BME280;36844;51.898;-0.874;2022-08-03T02:45:20;100133.78;;;23.31;
46015;BME280;36844;51.898;-0.874;2022-08-03T02:48:06;100123.41;;;23.29;
46015;BME280;36844;51.898;-0.874;2022-08-03T02:50:53;100128.84;;;23.29;
46015;BME280;36844;51.898;-0.874;2022-08-03T02:53:39;100128.06;;;23.29;
46015;BME280;36844;51.898;-0.874;2022-08-03T02:56:27;100122.63;;;23.29;
46015;BME280;36844;51.898;-0.874;2022-08-03T02:59:12;100123.41;;;23.29;
46015;BME280;36844;51.898;-0.874;2022-08-03T03:01:59;100123.03;;;23.27;
46015;BME280;36844;51.898;-0.874;2022-08-03T03:04:45;100124.59;;;23.28;
46015;BME280;36844;51.898;-0.874;2022-08-03T03:07:31;100122.34;;;23.27;
46015;BME280;36844;51.898;-0.874;2022-08-03T03:10:18;100131.69;;;23.26;
46015;BME280;36844;51.898;-0.874;2022-08-03T03:13:05;100127.78;;;23.27;
46015;BME280;36844;51.898;-0.874;2022-08-03T03:15:51;100127.00;;;23.26;
46015;BME280;36844;51.898;-0.874;2022-08-03T03:18:36;100126.25;;;23.26;
46015;BME280;36844;51.898;-0.874;2022-08-03T03:21:22;100134.38;;;23.26;
46015;BME280;36844;51.898;-0.874;2022-08-03T03:24:08;100135.56;;;23.25;
46015;BME280;36844;51.898;-0.874;2022-08-03T03:26:54;100122.44;;;23.23;
46015;BME280;36844;51.898;-0.874;2022-08-03T03:29:40;100129.84;;;23.23;
46015;BME280;36844;51.898;-0.874;2022-08-03T03:32:26;100120.94;;;23.22;
46015;BME280;36844;51.898;-0.874;2022-08-03T03:35:12;100120.94;;;23.22;
46015;BME280;36844;51.898;-0.874;2022-08-03T03:37:58;100124.81;;;23.21;
46015;BME280;36844;51.898;-0.874;2022-08-03T03:40:44;100117.44;;;23.22;
46015;BME280;36844;51.898;-0.874;2022-08-03T03:43:29;100124.81;;;23.21;
46015;BME280;36844;51.898;-0.874;2022-08-03T03:46:15;100126.81;;;23.21;
46015;BME280;36844;51.898;-0.874;2022-08-03T03:49:01;100126.81;;;23.21;
46015;BME280;36844;51.898;-0.874;2022-08-03T03:51:46;100126.81;;;23.21;
46015;BME280;36844;51.898;-0.874;2022-08-03T03:54:41;100126.03;;;23.20;
46015;BME280;36844;51.898;-0.874;2022-08-03T03:57:27;100125.28;;;23.20;
46015;BME280;36844;51.898;-0.874;2022-08-03T04:00:14;100124.50;;;23.19;
46015;BME280;36844;51.898;-0.874;2022-08-03T04:03:00;100128.44;;;23.18;
46015;BME280;36844;51.898;-0.874;2022-08-03T04:05:45;100127.69;;;23.18;
46015;BME280;36844;51.898;-0.874;2022-08-03T04:08:50;100119.53;;;23.18;
46015;BME280;36844;51.898;-0.874;2022-08-03T04:11:54;100122.66;;;23.16;
46015;BME280;36844;51.898;-0.874;2022-08-03T04:14:42;100117.25;;;23.16;
46015;BME280;36844;51.898;-0.874;2022-08-03T04:17:28;100121.91;;;23.16;
46015;BME280;36844;51.898;-0.874;2022-08-03T04:20:15;100124.63;;;23.16;
46015;BME280;36844;51.898;-0.874;2022-08-03T04:23:02;100123.88;;;23.15;
46015;BME280;36844;51.898;-0.874;2022-08-03T04:25:48;100121.16;;;23.15;
46015;BME280;36844;51.898;-0.874;2022-08-03T04:28:35;100133.25;;;23.14;
46015;BME280;36844;51.898;-0.874;2022-08-03T04:31:22;100125.88;;;23.15;
46015;BME280;36844;51.898;-0.874;2022-08-03T04:34:08;100135.19;;;23.14;
46015;BME280;36844;51.898;-0.874;2022-08-03T04:36:55;100134.00;;;23.15;
46015;BME280;36844;51.898;-0.874;2022-08-03T04:39:42;100141.41;;;23.14;
46015;BME280;36844;51.898;-0.874;2022-08-03T04:42:29;100143.34;;;23.14;
46015;BME280;36844;51.898;-0.874;2022-08-03T04:45:16;100140.63;;;23.14;
46015;BME280;36844;51.898;-0.874;2022-08-03T04:48:03;100141.81;;;23.13;
46015;BME280;36844;51.898;-0.874;2022-08-03T04:50:49;100139.88;;;23.13;
46015;BME280;36844;51.898;-0.874;2022-08-03T04:53:35;100139.88;;;23.13;
46015;BME280;36844;51.898;-0.874;2022-08-03T04:56:21;100138.34;;;23.12;
46015;BME280;36844;51.898;-0.874;2022-08-03T04:59:07;100142.59;;;23.13;
46015;BME280;36844;51.898;-0.874;2022-08-03T05:01:52;100143.75;;;23.12;
46015;BME280;36844;51.898;-0.874;2022-08-03T05:04:38;100145.75;;;23.12;
46015;BME280;36844;51.898;-0.874;2022-08-03T05:07:25;100140.31;;;23.12;
46015;BME280;36844;51.898;-0.874;2022-08-03T05:10:11;100143.75;;;23.12;
46015;BME280;36844;51.898;-0.874;2022-08-03T05:12:57;100136.09;;;23.11;
46015;BME280;36844;51.898;-0.874;2022-08-03T05:15:43;100143.47;;;23.10;
46015;BME280;36844;51.898;-0.874;2022-08-03T05:18:28;100153.16;;;23.11;
46015;BME280;36844;51.898;-0.874;2022-08-03T05:21:14;100151.63;;;23.10;
46015;BME280;36844;51.898;-0.874;2022-08-03T05:24:01;100145.41;;;23.10;
46015;BME280;36844;51.898;-0.874;2022-08-03T05:26:46;100150.84;;;23.10;
46015;BME280;36844;51.898;-0.874;2022-08-03T05:29:32;100156.28;;;23.10;
46015;BME280;36844;51.898;-0.874;2022-08-03T05:32:17;100150.84;;;23.10;
46015;BME280;36844;51.898;-0.874;2022-08-03T05:35:03;100160.97;;;23.09;
46015;BME280;36844;51.898;-0.874;2022-08-03T05:37:49;100160.22;;;23.09;
46015;BME280;36844;51.898;-0.874;2022-08-03T05:40:34;100171.09;;;23.09;
46015;BME280;36844;51.898;-0.874;2022-08-03T05:43:20;100166.41;;;23.09;
46015;BME280;36844;51.898;-0.874;2022-08-03T05:46:06;100165.66;;;23.09;
46015;BME280;36844;51.898;-0.874;2022-08-03T05:48:51;100160.97;;;23.09;
46015;BME280;36844;51.898;-0.874;2022-08-03T05:51:37;100157.50;;;23.09;
46015;BME280;36844;51.898;-0.874;2022-08-03T05:54:22;100161.41;;;23.08;
46015;BME280;36844;51.898;-0.874;2022-08-03T05:57:08;100164.13;;;23.08;
46015;BME280;36844;51.898;-0.874;2022-08-03T05:59:54;100162.59;;;23.07;
46015;BME280;36844;51.898;-0.874;2022-08-03T06:02:39;100164.13;;;23.08;
46015;BME280;36844;51.898;-0.874;2022-08-03T06:05:25;100166.84;;;23.08;
46015;BME280;36844;51.898;-0.874;2022-08-03T06:08:12;100164.13;;;23.08;
46015;BME280;36844;51.898;-0.874;2022-08-03T06:10:58;100168.81;;;23.07;
46015;BME280;36844;51.898;-0.874;2022-08-03T06:13:43;100174.97;;;23.08;
46015;BME280;36844;51.898;-0.874;2022-08-03T06:16:29;100170.75;;;23.07;
46015;BME280;36844;51.898;-0.874;2022-08-03T06:19:15;100167.28;;;23.06;
46015;BME280;36844;51.898;-0.874;2022-08-03T06:22:00;100178.91;;;23.07;
46015;BME280;36844;51.898;-0.874;2022-08-03T06:24:46;100180.84;;;23.06;
46015;BME280;36844;51.898;-0.874;2022-08-03T06:27:31;100168.47;;;23.05;
46015;BME280;36844;51.898;-0.874;2022-08-03T06:30:17;100170.91;;;23.03;
46015;BME280;36844;51.898;-0.874;2022-08-03T06:33:03;100171.31;;;23.02;
46015;BME280;36844;51.898;-0.874;2022-08-03T06:35:48;100163.59;;;23.00;
46015;BME280;36844;51.898;-0.874;2022-08-03T06:38:34;100166.75;;;22.99;
46015;BME280;36844;51.898;-0.874;2022-08-03T06:41:20;100171.44;;;22.98;
46015;BME280;36844;51.898;-0.874;2022-08-03T06:44:05;100182.31;;;22.98;
46015;BME280;36844;51.898;-0.874;2022-08-03T06:46:51;100175.38;;;22.97;
46015;BME280;36844;51.898;-0.874;2022-08-03T06:49:37;100170.66;;;22.98;
46015;BME280;36844;51.898;-0.874;2022-08-03T06:52:22;100175.38;;;22.97;
46015;BME280;36844;51.898;-0.874;2022-08-03T06:55:08;100167.94;;;22.98;
46015;BME280;36844;51.898;-0.874;2022-08-03T06:57:54;100169.94;;;22.97;
46015;BME280;36844;51.898;-0.874;2022-08-03T07:00:39;100173.38;;;22.98;
46015;BME280;36844;51.898;-0.874;2022-08-03T07:03:25;100169.16;;;22.97;
46015;BME280;36844;51.898;-0.874;2022-08-03T07:06:11;100177.31;;;22.97;
46015;BME280;36844;51.898;-0.874;2022-08-03T07:08:56;100160.28;;;22.96;
46015;BME280;36844;51.898;-0.874;2022-08-03T07:11:42;100169.16;;;22.97;
46015;BME280;36844;51.898;-0.874;2022-08-03T07:14:27;100168.41;;;22.96;
46015;BME280;36844;51.898;-0.874;2022-08-03T07:17:13;100174.59;;;22.97;
46015;BME280;36844;51.898;-0.874;2022-08-03T07:19:59;100169.16;;;22.97;
46015;BME280;36844;51.898;-0.874;2022-08-03T07:22:45;100177.31;;;22.97;
46015;BME280;36844;51.898;-0.874;2022-08-03T07:25:30;100176.09;;;22.98;
46015;BME280;36844;51.898;-0.874;2022-08-03T07:28:16;100175.38;;;22.97;
46015;BME280;36844;51.898;-0.874;2022-08-03T07:31:02;100183.50;;;22.97;
46015;BME280;36844;51.898;-0.874;2022-08-03T07:33:47;100172.66;;;22.97;
46015;BME280;36844;51.898;-0.874;2022-08-03T07:36:33;100176.09;;;22.98;
46015;BME280;36844;51.898;-0.874;2022-08-03T07:39:18;100176.88;;;22.98;
46015;BME280;36844;51.898;-0.874;2022-08-03T07:42:04;100166.75;;;22.99;
46015;BME280;36844;51.898;-0.874;2022-08-03T07:44:50;100166.75;;;22.99;
46015;BME280;36844;51.898;-0.874;2022-08-03T07:47:35;100179.16;;;23.00;
46015;BME280;36844;51.898;-0.874;2022-08-03T07:50:21;100171.03;;;23.00;
46015;BME280;36844;51.898;-0.874;2022-08-03T07:53:06;100177.94;;;23.01;
46015;BME280;36844;51.898;-0.874;2022-08-03T07:55:52;100177.94;;;23.01;
46015;BME280;36844;51.898;-0.874;2022-08-03T07:58:37;100168.59;;;23.02;
46015;BME280;36844;51.898;-0.874;2022-08-03T08:01:23;100181.00;;;23.03;
46015;BME280;36844;51.898;-0.874;2022-08-03T08:04:08;100181.00;;;23.03;
46015;BME280;36844;51.898;-0.874;2022-08-03T08:06:54;100177.06;;;23.04;
46015;BME280;36844;51.898;-0.874;2022-08-03T08:09:40;100179.78;;;23.04;
46015;BME280;36844;51.898;-0.874;2022-08-03T08:12:26;100186.72;;;23.05;
46015;BME280;36844;51.898;-0.874;2022-08-03T08:15:11;100171.97;;;23.06;
46015;BME280;36844;51.898;-0.874;2022-08-03T08:17:58;100175.44;;;23.06;
46015;BME280;36844;51.898;-0.874;2022-08-03T08:20:44;100183.56;;;23.06;
46015;BME280;36844;51.898;-0.874;2022-08-03T08:23:29;100178.91;;;23.07;
46015;BME280;36844;51.898;-0.874;2022-08-03T08:26:16;100173.47;;;23.07;
46015;BME280;36844;51.898;-0.874;2022-08-03T08:29:02;100173.47;;;23.07;
46015;BME280;36844;51.898;-0.874;2022-08-03T08:31:48;100172.25;;;23.08;
46015;BME280;36844;51.898;-0.874;2022-08-03T08:34:34;100176.53;;;23.09;
46015;BME280;36844;51.898;-0.874;2022-08-03T08:37:20;100175.31;;;23.10;
46015;BME280;36844;51.898;-0.874;2022-08-03T08:40:06;100178.78;;;23.10;
46015;BME280;36844;51.898;-0.874;2022-08-03T08:42:52;100174.13;;;23.11;
46015;BME280;36844;51.898;-0.874;2022-08-03T08:45:37;100177.13;;;23.13;
46015;BME280;36844;51.898;-0.874;2022-08-03T08:48:25;100184.13;;;23.14;
46015;BME280;36844;51.898;-0.874;2022-08-03T08:51:11;100188.38;;;23.15;
46015;BME280;36844;51.898;-0.874;2022-08-03T08:53:59;100191.09;;;23.15;
46015;BME280;36844;51.898;-0.874;2022-08-03T08:56:46;100187.13;;;23.16;
46015;BME280;36844;51.898;-0.874;2022-08-03T08:59:32;100185.94;;;23.17;
46015;BME280;36844;51.898;-0.874;2022-08-03T09:02:19;100183.22;;;23.17;
46015;BME280;36844;51.898;-0.874;2022-08-03T09:05:04;100180.06;;;23.18;
46015;BME280;36844;51.898;-0.874;2022-08-03T09:07:50;100187.47;;;23.18;
46015;BME280;36844;51.898;-0.874;2022-08-03T09:10:37;100187.00;;;23.19;
46015;BME280;36844;51.898;-0.874;2022-08-03T09:13:22;100181.56;;;23.19;
46015;BME280;36844;51.898;-0.874;2022-08-03T09:16:15;100187.78;;;23.20;
46015;BME280;36844;51.898;-0.874;2022-08-03T09:19:11;100186.59;;;23.21;
46015;BME280;36844;51.898;-0.874;2022-08-03T09:22:05;100187.34;;;23.21;
46015;BME280;36844;51.898;-0.874;2022-08-03T09:24:53;100194.31;;;23.22;
46015;BME280;36844;51.898;-0.874;2022-08-03T09:27:43;100194.31;;;23.22;
46015;BME280;36844;51.898;-0.874;2022-08-03T09:30:29;100193.09;;;23.23;
46015;BME280;36844;51.898;-0.874;2022-08-03T09:33:14;100199.31;;;23.24;
46015;BME280;36844;51.898;-0.874;2022-08-03T09:36:00;100191.16;;;23.24;
46015;BME280;36844;51.898;-0.874;2022-08-03T09:38:59;100204.72;;;23.24;
46015;BME280;36844;51.898;-0.874;2022-08-03T09:41:46;100191.47;;;23.26;
46015;BME280;36844;51.898;-0.874;2022-08-03T09:44:33;100193.41;;;23.25;
46015;BME280;36844;51.898;-0.874;2022-08-03T09:47:26;100190.69;;;23.25;
46015;BME280;36844;51.898;-0.874;2022-08-03T09:50:12;100192.25;;;23.26;
46015;BME280;36844;51.898;-0.874;2022-08-03T09:53:00;100195.72;;;23.27;
46015;BME280;36844;51.898;-0.874;2022-08-03T09:55:49;100193.72;;;23.27;
46015;BME280;36844;51.898;-0.874;2022-08-03T09:58:38;100198.72;;;23.29;
46015;BME280;36844;51.898;-0.874;2022-08-03T10:01:32;100198.72;;;23.29;
46015;BME280;36844;51.898;-0.874;2022-08-03T10:04:18;100198.72;;;23.29;
46015;BME280;36844;51.898;-0.874;2022-08-03T10:07:08;100188.63;;;23.29;
46015;BME280;36844;51.898;-0.874;2022-08-03T10:09:55;100197.56;;;23.30;
46015;BME280;36844;51.898;-0.874;2022-08-03T10:12:41;100199.50;;;23.29;
46015;BME280;36844;51.898;-0.874;2022-08-03T10:15:27;100188.16;;;23.31;
46015;BME280;36844;51.898;-0.874;2022-08-03T10:18:13;100190.47;;;23.33;
46015;BME280;36844;51.898;-0.874;2022-08-03T10:21:02;100179.59;;;23.33;
46015;BME280;36844;51.898;-0.874;2022-08-03T10:23:48;100177.63;;;23.33;
46015;BME280;36844;51.898;-0.874;2022-08-03T10:26:36;100170.22;;;23.33;
46015;BME280;36844;51.898;-0.874;2022-08-03T10:29:23;100178.69;;;23.36;
46015;BME280;36844;51.898;-0.874;2022-08-03T10:32:11;100175.53;;;23.37;
46015;BME280;36844;51.898;-0.874;2022-08-03T10:35:03;100172.81;;;23.37;
46015;BME280;36844;51.898;-0.874;2022-08-03T10:40:38;100177.38;;;23.40;
46015;BME280;36844;51.898;-0.874;2022-08-03T10:43:28;100180.84;;;23.41;
46015;BME280;36844;51.898;-0.874;2022-08-03T10:46:17;100180.84;;;23.41;
46015;BME280;36844;51.898;-0.874;2022-08-03T10:49:04;100183.13;;;23.42;
46015;BME280;36844;51.898;-0.874;2022-08-03T10:51:50;100178.00;;;23.44;
46015;BME280;36844;51.898;-0.874;2022-08-03T11:00:26;100171.69;;;23.47;
46015;BME280;36844;51.898;-0.874;2022-08-03T11:03:14;100178.22;;;23.50;
46015;BME280;36844;51.898;-0.874;2022-08-03T11:06:16;100168.06;;;23.50;
46015;BME280;36844;51.898;-0.874;2022-08-03T11:11:53;100162.63;;;23.50;
46015;BME280;36844;51.898;-0.874;2022-08-03T11:14:45;100150.13;;;23.53;
46015;BME280;36844;51.898;-0.874;2022-08-03T11:17:32;100165.97;;;23.54;
46015;BME280;36844;51.898;-0.874;2022-08-03T11:20:21;100157.81;;;23.54;
46015;BME280;36844;51.898;-0.874;2022-08-03T11:23:43;100159.34;;;23.55;
46015;BME280;36844;51.898;-0.874;2022-08-03T11:26:29;100160.88;;;23.56;
46015;BME280;36844;51.898;-0.874;2022-08-03T11:29:28;100166.63;;;23.58;
46015;BME280;36844;51.898;-0.874;2022-08-03T11:32:49;100158.47;;;23.58;
46015;BME280;36844;51.898;-0.874;2022-08-03T11:38:09;100177.81;;;23.60;
46015;BME280;36844;51.898;-0.874;2022-08-03T11:40:55;100177.81;;;23.60;
46015;BME280;36844;51.898;-0.874;2022-08-03T11:46:33;100169.53;;;23.64;
46015;BME280;36844;51.898;-0.874;2022-08-03T11:49:20;100162.16;;;23.64;
46015;BME280;36844;51.898;-0.874;2022-08-03T11:52:08;100174.56;;;23.65;
46015;BME280;36844;51.898;-0.874;2022-08-03T11:54:53;100174.56;;;23.65;
46015;BME280;36844;51.898;-0.874;2022-08-03T11:57:39;100168.34;;;23.65;
46015;BME280;36844;51.898;-0.874;2022-08-03T12:00:29;100164.38;;;23.66;
46015;BME280;36844;51.898;-0.874;2022-08-03T12:03:15;100171.34;;;23.67;
46015;BME280;36844;51.898;-0.874;2022-08-03T12:06:01;100171.22;;;23.70;
46015;BME280;36844;51.898;-0.874;2022-08-03T12:08:48;100171.22;;;23.70;
46015;BME280;36844;51.898;-0.874;2022-08-03T12:11:34;100182.44;;;23.72;
46015;BME280;36844;51.898;-0.874;2022-08-03T12:14:19;100179.72;;;23.72;
46015;BME280;36844;51.898;-0.874;2022-08-03T12:17:05;100179.72;;;23.72;
46015;BME280;36844;51.898;-0.874;2022-08-03T12:19:51;100180.00;;;23.74;
46015;BME280;36844;51.898;-0.874;2022-08-03T12:22:37;100178.81;;;23.75;
46015;BME280;36844;51.898;-0.874;2022-08-03T12:25:25;100178.81;;;23.75;
46015;BME280;36844;51.898;-0.874;2022-08-03T12:28:16;100190.00;;;23.77;
46015;BME280;36844;51.898;-0.874;2022-08-03T12:31:04;100190.00;;;23.77;
46015;BME280;36844;51.898;-0.874;2022-08-03T12:34:03;100189.56;;;23.79;
46015;BME280;36844;51.898;-0.874;2022-08-03T12:36:50;100196.56;;;23.80;
46015;BME280;36844;51.898;-0.874;2022-08-03T12:39:36;100190.63;;;23.81;
46015;BME280;36844;51.898;-0.874;2022-08-03T12:42:28;100190.63;;;23.81;
46015;BME280;36844;51.898;-0.874;2022-08-03T12:45:17;100187.91;;;23.81;
46015;BME280;36844;51.898;-0.874;2022-08-03T12:48:07;100187.91;;;23.81;
46015;BME280;36844;51.898;-0.874;2022-08-03T12:51:05;100185.50;;;23.83;
46015;BME280;36844;51.898;-0.874;2022-08-03T12:53:52;100179.34;;;23.83;
46015;BME280;36844;51.898;-0.874;2022-08-03T12:56:55;100191.72;;;23.84;
46015;BME280;36844;51.898;-0.874;2022-08-03T12:59:41;100193.22;;;23.85;
46015;BME280;36844;51.898;-0.874;2022-08-03T13:02:27;100193.22;;;23.85;
46015;BME280;36844;51.898;-0.874;2022-08-03T13:05:14;100190.50;;;23.85;
46015;BME280;36844;51.898;-0.874;2022-08-03T13:07:59;100184.63;;;23.86;
46015;BME280;36844;51.898;-0.874;2022-08-03T13:10:45;100188.09;;;23.87;
46015;BME280;36844;51.898;-0.874;2022-08-03T13:13:37;100188.09;;;23.87;
46015;BME280;36844;51.898;-0.874;2022-08-03T13:16:23;100182.97;;;23.89;
46015;BME280;36844;51.898;-0.874;2022-08-03T13:19:09;100184.97;;;23.88;
46015;BME280;36844;51.898;-0.874;2022-08-03T13:21:55;100189.94;;;23.90;
46015;BME280;36844;51.898;-0.874;2022-08-03T13:24:41;100186.03;;;23.91;
46015;BME280;36844;51.898;-0.874;2022-08-03T13:27:28;100186.03;;;23.91;
46015;BME280;36844;51.898;-0.874;2022-08-03T13:30:13;100187.97;;;23.90;
46015;BME280;36844;51.898;-0.874;2022-08-03T13:32:59;100187.53;;;23.92;
46015;BME280;36844;51.898;-0.874;2022-08-03T13:35:44;100187.53;;;23.92;
46015;BME280;36844;51.898;-0.874;2022-08-03T13:38:30;100186.03;;;23.91;
46015;BME280;36844;51.898;-0.874;2022-08-03T13:41:16;100186.03;;;23.91;
46015;BME280;36844;51.898;-0.874;2022-08-03T13:44:02;100183.59;;;23.93;
46015;BME280;36844;51.898;-0.874;2022-08-03T13:46:47;100186.31;;;23.93;
46015;BME280;36844;51.898;-0.874;2022-08-03T13:49:33;100184.38;;;23.93;
46015;BME280;36844;51.898;-0.874;2022-08-03T13:52:19;100187.84;;;23.94;
46015;BME280;36844;51.898;-0.874;2022-08-03T13:55:05;100174.25;;;23.94;
46015;BME280;36844;51.898;-0.874;2022-08-03T13:57:50;100174.25;;;23.94;
46015;BME280;36844;51.898;-0.874;2022-08-03T14:00:36;100179.25;;;23.95;
46015;BME280;36844;51.898;-0.874;2022-08-03T14:03:22;100178.03;;;23.96;
46015;BME280;36844;51.898;-0.874;2022-08-03T14:06:08;100178.03;;;23.96;
46015;BME280;36844;51.898;-0.874;2022-08-03T14:08:53;100175.63;;;23.98;
46015;BME280;36844;51.898;-0.874;2022-08-03T14:11:40;100175.63;;;23.98;
46015;BME280;36844;51.898;-0.874;2022-08-03T14:14:25;100161.59;;;24.00;
46015;BME280;36844;51.898;-0.874;2022-08-03T14:17:11;100169.28;;;24.01;
46015;BME280;36844;51.898;-0.874;2022-08-03T14:19:56;100165.38;;;24.02;
46015;BME280;36844;51.898;-0.874;2022-08-03T14:22:42;100165.38;;;24.02;
46015;BME280;36844;51.898;-0.874;2022-08-03T14:25:27;100168.38;;;24.04;
46015;BME280;36844;51.898;-0.874;2022-08-03T14:28:15;100161.31;;;24.07;
46015;BME280;36844;51.898;-0.874;2022-08-03T14:31:01;100174.47;;;24.08;
46015;BME280;36844;51.898;-0.874;2022-08-03T14:33:46;100174.00;;;24.10;
46015;BME280;36844;51.898;-0.874;2022-08-03T14:36:32;100170.88;;;24.11;
46015;BME280;36844;51.898;-0.874;2022-08-03T14:39:17;100165.72;;;24.13;
46015;BME280;36844;51.898;-0.874;2022-08-03T14:42:03;100169.97;;;24.14;
46015;BME280;36844;51.898;-0.874;2022-08-03T14:44:48;100169.97;;;24.14;
46015;BME280;36844;51.898;-0.874;2022-08-03T14:47:34;100170.56;;;24.18;
46015;BME280;36844;51.898;-0.874;2022-08-03T14:50:20;100170.56;;;24.18;
46015;BME280;36844;51.898;-0.874;2022-08-03T14:53:06;100166.94;;;24.21;
46015;BME280;36844;51.898;-0.874;2022-08-03T14:55:52;100166.53;;;24.23;
46015;BME280;36844;51.898;-0.874;2022-08-03T14:58:37;100166.06;;;24.24;
46015;BME280;36844;51.898;-0.874;2022-08-03T15:01:23;100164.88;;;24.25;
46015;BME280;36844;51.898;-0.874;2022-08-03T15:04:09;100163.66;;;24.26;
46015;BME280;36844;51.898;-0.874;2022-08-03T15:06:54;100158.50;;;24.28;
46015;BME280;36844;51.898;-0.874;2022-08-03T15:09:40;100163.50;;;24.30;
46015;BME280;36844;51.898;-0.874;2022-08-03T15:12:25;100157.63;;;24.31;
46015;BME280;36844;51.898;-0.874;2022-08-03T15:15:11;100153.66;;;24.32;
46015;BME280;36844;51.898;-0.874;2022-08-03T15:17:56;100154.00;;;24.34;
46015;BME280;36844;51.898;-0.874;2022-08-03T15:20:42;100150.03;;;24.35;
46015;BME280;36844;51.898;-0.874;2022-08-03T15:23:28;100153.13;;;24.37;
46015;BME280;36844;51.898;-0.874;2022-08-03T15:26:13;100149.91;;;24.39;
46015;BME280;36844;51.898;-0.874;2022-08-03T15:28:59;100147.50;;;24.41;
46015;BME280;36844;51.898;-0.874;2022-08-03T15:31:44;100138.88;;;24.42;
46015;BME280;36844;51.898;-0.874;2022-08-03T15:34:30;100144.63;;;24.44;
46015;BME280;36844;51.898;-0.874;2022-08-03T15:37:15;100143.44;;;24.45;
46015;BME280;36844;51.898;-0.874;2022-08-03T15:40:01;100143.44;;;24.45;
46015;BME280;36844;51.898;-0.874;2022-08-03T15:42:47;100141.78;;;24.48;
46015;BME280;36844;51.898;-0.874;2022-08-03T15:45:33;100144.03;;;24.49;
46015;BME280;36844;51.898;-0.874;2022-08-03T15:48:18;100145.56;;;24.50;
46015;BME280;36844;51.898;-0.874;2022-08-03T15:51:05;100144.34;;;24.51;